sensor_id;sensor_type;location;lat;lon;timestamp;P1;durP1;ratioP1;P2;durP2;ratioP2
33148;SDS011;19506;51.040;3.856;2022-09-03T00:00:58;6.40;;;3.90;;
33148;SDS011;19506;51.040;3.856;2022-09-03T00:03:38;6.90;;;4.15;;
33148;SDS011;19506;51.040;3.856;2022-09-03T00:06:12;7.80;;;4.80;;
33148;SDS011;19506;51.040;3.856;2022-09-03T00:08:46;9.50;;;4.00;;
33148;SDS011;19506;51.040;3.856;2022-09-03T00:11:23;6.78;;;3.97;;
33148;SDS011;19506;51.040;3.856;2022-09-03T00:16:43;7.07;;;3.38;;
33148;SDS011;19506;51.040;3.856;2022-09-03T00:19:15;10.10;;;3.88;;
33148;SDS011;19506;51.040;3.856;2022-09-03T00:21:48;6.10;;;3.90;;
33148;SDS011;19506;51.040;3.856;2022-09-03T00:24:19;4.35;;;3.80;;
33148;SDS011;19506;51.040;3.856;2022-09-03T00:26:51;5.13;;;3.85;;
33148;SDS011;19506;51.040;3.856;2022-09-03T00:30:03;8.05;;;3.80;;
33148;SDS011;19506;51.040;3.856;2022-09-03T00:35:17;7.30;;;4.47;;
33148;SDS011;19506;51.040;3.856;2022-09-03T00:37:50;4.55;;;3.67;;
33148;SDS011;19506;51.040;3.856;2022-09-03T00:46:10;5.55;;;4.07;;
33148;SDS011;19506;51.040;3.856;2022-09-03T00:51:38;6.05;;;3.67;;
33148;SDS011;19506;51.040;3.856;2022-09-03T00:56:48;5.55;;;3.88;;
33148;SDS011;19506;51.040;3.856;2022-09-03T00:59:37;5.97;;;4.03;;
33148;SDS011;19506;51.040;3.856;2022-09-03T01:02:23;4.28;;;3.72;;
33148;SDS011;19506;51.040;3.856;2022-09-03T01:05:11;5.55;;;3.25;;
33148;SDS011;19506;51.040;3.856;2022-09-03T01:07:48;5.20;;;3.50;;
33148;SDS011;19506;51.040;3.856;2022-09-03T01:19:18;5.80;;;4.03;;
33148;SDS011;19506;51.040;3.856;2022-09-03T01:30:34;4.07;;;3.30;;
33148;SDS011;19506;51.040;3.856;2022-09-03T01:36:07;7.82;;;3.38;;
33148;SDS011;19506;51.040;3.856;2022-09-03T01:38:52;8.63;;;3.90;;
33148;SDS011;19506;51.040;3.856;2022-09-03T01:41:43;5.47;;;3.72;;
33148;SDS011;19506;51.040;3.856;2022-09-03T01:47:17;7.25;;;4.28;;
33148;SDS011;19506;51.040;3.856;2022-09-03T01:53:12;6.80;;;4.18;;
33148;SDS011;19506;51.040;3.856;2022-09-03T01:58:14;6.90;;;3.85;;
33148;SDS011;19506;51.040;3.856;2022-09-03T02:00:54;6.80;;;4.40;;
33148;SDS011;19506;51.040;3.856;2022-09-03T02:03:24;5.40;;;3.35;;
33148;SDS011;19506;51.040;3.856;2022-09-03T02:06:09;5.07;;;3.53;;
33148;SDS011;19506;51.040;3.856;2022-09-03T02:08:35;4.40;;;3.53;;
33148;SDS011;19506;51.040;3.856;2022-09-03T02:11:02;6.63;;;4.43;;
33148;SDS011;19506;51.040;3.856;2022-09-03T02:13:51;6.15;;;4.15;;
33148;SDS011;19506;51.040;3.856;2022-09-03T02:16:22;4.68;;;3.40;;
33148;SDS011;19506;51.040;3.856;2022-09-03T02:18:55;7.10;;;4.25;;
33148;SDS011;19506;51.040;3.856;2022-09-03T02:21:26;5.68;;;4.30;;
33148;SDS011;19506;51.040;3.856;2022-09-03T02:23:56;5.05;;;3.88;;
33148;SDS011;19506;51.040;3.856;2022-09-03T02:26:22;6.50;;;3.63;;
33148;SDS011;19506;51.040;3.856;2022-09-03T02:28:49;5.53;;;4.10;;
33148;SDS011;19506;51.040;3.856;2022-09-03T02:31:16;5.38;;;3.70;;
33148;SDS011;19506;51.040;3.856;2022-09-03T02:33:43;4.45;;;3.80;;
33148;SDS011;19506;51.040;3.856;2022-09-03T02:36:12;4.63;;;4.03;;
33148;SDS011;19506;51.040;3.856;2022-09-03T02:38:41;5.45;;;3.72;;
33148;SDS011;19506;51.040;3.856;2022-09-03T02:41:08;6.35;;;3.42;;
33148;SDS011;19506;51.040;3.856;2022-09-03T02:46:20;4.90;;;4.10;;
33148;SDS011;19506;51.040;3.856;2022-09-03T02:48:48;7.20;;;3.47;;
33148;SDS011;19506;51.040;3.856;2022-09-03T02:51:14;4.45;;;3.50;;
33148;SDS011;19506;51.040;3.856;2022-09-03T02:53:40;5.70;;;3.30;;
33148;SDS011;19506;51.040;3.856;2022-09-03T02:56:06;5.15;;;3.38;;
33148;SDS011;19506;51.040;3.856;2022-09-03T02:58:32;5.75;;;3.55;;
33148;SDS011;19506;51.040;3.856;2022-09-03T03:00:58;7.43;;;3.97;;
33148;SDS011;19506;51.040;3.856;2022-09-03T03:03:24;5.25;;;3.63;;
33148;SDS011;19506;51.040;3.856;2022-09-03T03:05:53;4.78;;;3.72;;
33148;SDS011;19506;51.040;3.856;2022-09-03T03:08:22;4.13;;;3.72;;
33148;SDS011;19506;51.040;3.856;2022-09-03T03:10:53;5.88;;;3.90;;
33148;SDS011;19506;51.040;3.856;2022-09-03T03:13:23;4.28;;;3.53;;
33148;SDS011;19506;51.040;3.856;2022-09-03T03:15:49;6.43;;;3.70;;
33148;SDS011;19506;51.040;3.856;2022-09-03T03:18:15;9.15;;;4.30;;
33148;SDS011;19506;51.040;3.856;2022-09-03T03:20:42;4.45;;;3.67;;
33148;SDS011;19506;51.040;3.856;2022-09-03T03:23:08;4.32;;;3.40;;
33148;SDS011;19506;51.040;3.856;2022-09-03T03:25:34;4.32;;;3.72;;
33148;SDS011;19506;51.040;3.856;2022-09-03T03:28:01;6.80;;;4.10;;
33148;SDS011;19506;51.040;3.856;2022-09-03T03:30:29;18.23;;;5.70;;
33148;SDS011;19506;51.040;3.856;2022-09-03T03:32:55;7.72;;;6.05;;
33148;SDS011;19506;51.040;3.856;2022-09-03T03:35:21;7.95;;;6.45;;
33148;SDS011;19506;51.040;3.856;2022-09-03T03:37:47;10.18;;;7.07;;
33148;SDS011;19506;51.040;3.856;2022-09-03T03:40:13;8.07;;;6.32;;
33148;SDS011;19506;51.040;3.856;2022-09-03T03:42:39;11.38;;;6.60;;
33148;SDS011;19506;51.040;3.856;2022-09-03T03:45:05;10.20;;;7.63;;
33148;SDS011;19506;51.040;3.856;2022-09-03T03:47:33;11.57;;;7.35;;
33148;SDS011;19506;51.040;3.856;2022-09-03T03:49:59;10.18;;;7.57;;
33148;SDS011;19506;51.040;3.856;2022-09-03T03:52:25;9.10;;;6.65;;
33148;SDS011;19506;51.040;3.856;2022-09-03T03:54:51;13.90;;;7.68;;
33148;SDS011;19506;51.040;3.856;2022-09-03T03:57:18;11.85;;;7.40;;
33148;SDS011;19506;51.040;3.856;2022-09-03T03:59:44;8.05;;;6.93;;
33148;SDS011;19506;51.040;3.856;2022-09-03T04:02:11;9.75;;;6.50;;
33148;SDS011;19506;51.040;3.856;2022-09-03T04:04:37;10.20;;;6.30;;
33148;SDS011;19506;51.040;3.856;2022-09-03T04:07:03;9.07;;;6.57;;
33148;SDS011;19506;51.040;3.856;2022-09-03T04:09:29;8.75;;;6.47;;
33148;SDS011;19506;51.040;3.856;2022-09-03T04:11:54;9.98;;;6.90;;
33148;SDS011;19506;51.040;3.856;2022-09-03T04:14:23;11.07;;;7.22;;
33148;SDS011;19506;51.040;3.856;2022-09-03T04:16:50;8.50;;;7.03;;
33148;SDS011;19506;51.040;3.856;2022-09-03T04:19:15;9.65;;;6.20;;
33148;SDS011;19506;51.040;3.856;2022-09-03T04:21:42;12.68;;;6.32;;
33148;SDS011;19506;51.040;3.856;2022-09-03T04:24:08;8.55;;;6.38;;
33148;SDS011;19506;51.040;3.856;2022-09-03T04:26:34;11.60;;;6.60;;
33148;SDS011;19506;51.040;3.856;2022-09-03T04:29:07;9.35;;;6.13;;
33148;SDS011;19506;51.040;3.856;2022-09-03T04:31:34;12.82;;;6.55;;
33148;SDS011;19506;51.040;3.856;2022-09-03T04:34:01;11.27;;;6.70;;
33148;SDS011;19506;51.040;3.856;2022-09-03T04:36:28;12.98;;;7.25;;
33148;SDS011;19506;51.040;3.856;2022-09-03T04:38:55;11.77;;;7.32;;
33148;SDS011;19506;51.040;3.856;2022-09-03T04:41:24;8.05;;;6.55;;
33148;SDS011;19506;51.040;3.856;2022-09-03T04:43:51;6.53;;;5.57;;
33148;SDS011;19506;51.040;3.856;2022-09-03T04:46:18;8.48;;;6.22;;
33148;SDS011;19506;51.040;3.856;2022-09-03T04:48:49;9.50;;;6.30;;
33148;SDS011;19506;51.040;3.856;2022-09-03T04:51:16;8.50;;;6.25;;
33148;SDS011;19506;51.040;3.856;2022-09-03T04:53:47;8.25;;;6.68;;
33148;SDS011;19506;51.040;3.856;2022-09-03T04:56:19;10.25;;;7.25;;
33148;SDS011;19506;51.040;3.856;2022-09-03T04:58:47;12.25;;;6.50;;
33148;SDS011;19506;51.040;3.856;2022-09-03T05:01:18;8.13;;;6.90;;
33148;SDS011;19506;51.040;3.856;2022-09-03T05:03:46;8.98;;;6.57;;
33148;SDS011;19506;51.040;3.856;2022-09-03T05:06:12;9.30;;;7.53;;
33148;SDS011;19506;51.040;3.856;2022-09-03T05:08:41;10.38;;;6.75;;
33148;SDS011;19506;51.040;3.856;2022-09-03T05:11:08;12.07;;;7.88;;
33148;SDS011;19506;51.040;3.856;2022-09-03T05:13:34;10.25;;;7.63;;
33148;SDS011;19506;51.040;3.856;2022-09-03T05:16:04;9.65;;;7.30;;
33148;SDS011;19506;51.040;3.856;2022-09-03T05:18:32;11.13;;;7.60;;
33148;SDS011;19506;51.040;3.856;2022-09-03T05:21:09;10.35;;;6.78;;
33148;SDS011;19506;51.040;3.856;2022-09-03T05:23:37;8.23;;;7.30;;
33148;SDS011;19506;51.040;3.856;2022-09-03T05:26:05;9.90;;;6.80;;
33148;SDS011;19506;51.040;3.856;2022-09-03T05:28:33;8.18;;;7.20;;
33148;SDS011;19506;51.040;3.856;2022-09-03T05:31:04;8.65;;;6.88;;
33148;SDS011;19506;51.040;3.856;2022-09-03T05:33:32;8.40;;;6.88;;
33148;SDS011;19506;51.040;3.856;2022-09-03T05:36:09;10.30;;;8.38;;
33148;SDS011;19506;51.040;3.856;2022-09-03T05:38:37;11.02;;;7.68;;
33148;SDS011;19506;51.040;3.856;2022-09-03T05:41:04;10.85;;;7.75;;
33148;SDS011;19506;51.040;3.856;2022-09-03T05:43:32;9.55;;;7.28;;
33148;SDS011;19506;51.040;3.856;2022-09-03T05:48:24;10.52;;;6.72;;
33148;SDS011;19506;51.040;3.856;2022-09-03T05:50:58;9.82;;;8.15;;
33148;SDS011;19506;51.040;3.856;2022-09-03T05:53:25;8.57;;;6.85;;
33148;SDS011;19506;51.040;3.856;2022-09-03T05:55:56;12.35;;;7.95;;
33148;SDS011;19506;51.040;3.856;2022-09-03T05:58:22;19.88;;;8.45;;
33148;SDS011;19506;51.040;3.856;2022-09-03T06:00:49;10.55;;;8.10;;
33148;SDS011;19506;51.040;3.856;2022-09-03T06:03:15;9.57;;;7.97;;
33148;SDS011;19506;51.040;3.856;2022-09-03T06:05:48;9.57;;;7.60;;
33148;SDS011;19506;51.040;3.856;2022-09-03T06:08:18;12.80;;;9.25;;
33148;SDS011;19506;51.040;3.856;2022-09-03T06:10:47;10.27;;;9.10;;
33148;SDS011;19506;51.040;3.856;2022-09-03T06:13:12;10.65;;;8.25;;
33148;SDS011;19506;51.040;3.856;2022-09-03T06:15:38;11.35;;;7.15;;
33148;SDS011;19506;51.040;3.856;2022-09-03T06:18:04;8.95;;;6.68;;
33148;SDS011;19506;51.040;3.856;2022-09-03T06:20:30;11.70;;;7.90;;
33148;SDS011;19506;51.040;3.856;2022-09-03T06:22:56;9.90;;;6.45;;
33148;SDS011;19506;51.040;3.856;2022-09-03T06:25:22;10.05;;;8.23;;
33148;SDS011;19506;51.040;3.856;2022-09-03T06:27:49;9.60;;;8.35;;
33148;SDS011;19506;51.040;3.856;2022-09-03T06:30:15;12.32;;;7.85;;
33148;SDS011;19506;51.040;3.856;2022-09-03T06:32:47;11.32;;;8.48;;
33148;SDS011;19506;51.040;3.856;2022-09-03T06:35:17;8.73;;;7.55;;
33148;SDS011;19506;51.040;3.856;2022-09-03T06:37:43;8.85;;;7.13;;
33148;SDS011;19506;51.040;3.856;2022-09-03T06:40:09;11.45;;;6.50;;
33148;SDS011;19506;51.040;3.856;2022-09-03T06:42:40;7.72;;;6.38;;
33148;SDS011;19506;51.040;3.856;2022-09-03T06:45:09;11.70;;;6.70;;
33148;SDS011;19506;51.040;3.856;2022-09-03T06:47:35;12.32;;;6.70;;
33148;SDS011;19506;51.040;3.856;2022-09-03T06:50:01;11.43;;;6.63;;
33148;SDS011;19506;51.040;3.856;2022-09-03T06:52:27;12.77;;;8.52;;
33148;SDS011;19506;51.040;3.856;2022-09-03T06:54:53;18.27;;;7.82;;
33148;SDS011;19506;51.040;3.856;2022-09-03T06:57:19;9.30;;;5.18;;
33148;SDS011;19506;51.040;3.856;2022-09-03T06:59:45;7.97;;;4.60;;
33148;SDS011;19506;51.040;3.856;2022-09-03T07:02:11;15.93;;;6.22;;
33148;SDS011;19506;51.040;3.856;2022-09-03T07:04:36;12.00;;;6.50;;
33148;SDS011;19506;51.040;3.856;2022-09-03T07:07:02;11.07;;;6.57;;
33148;SDS011;19506;51.040;3.856;2022-09-03T07:09:28;14.63;;;6.68;;
33148;SDS011;19506;51.040;3.856;2022-09-03T07:11:54;10.07;;;6.80;;
33148;SDS011;19506;51.040;3.856;2022-09-03T07:14:20;7.95;;;4.25;;
33148;SDS011;19506;51.040;3.856;2022-09-03T07:16:47;8.05;;;6.03;;
33148;SDS011;19506;51.040;3.856;2022-09-03T07:19:13;12.95;;;8.40;;
33148;SDS011;19506;51.040;3.856;2022-09-03T07:21:40;15.85;;;11.52;;
33148;SDS011;19506;51.040;3.856;2022-09-03T07:24:06;12.10;;;9.55;;
33148;SDS011;19506;51.040;3.856;2022-09-03T07:26:33;13.18;;;8.70;;
33148;SDS011;19506;51.040;3.856;2022-09-03T07:29:02;12.32;;;9.52;;
33148;SDS011;19506;51.040;3.856;2022-09-03T07:31:32;18.40;;;11.80;;
33148;SDS011;19506;51.040;3.856;2022-09-03T07:34:01;12.60;;;9.43;;
33148;SDS011;19506;51.040;3.856;2022-09-03T07:36:30;18.13;;;10.25;;
33148;SDS011;19506;51.040;3.856;2022-09-03T07:38:59;18.08;;;9.38;;
33148;SDS011;19506;51.040;3.856;2022-09-03T07:41:25;16.45;;;9.30;;
33148;SDS011;19506;51.040;3.856;2022-09-03T07:43:51;23.85;;;11.27;;
33148;SDS011;19506;51.040;3.856;2022-09-03T07:46:18;16.42;;;9.65;;
33148;SDS011;19506;51.040;3.856;2022-09-03T07:48:49;16.88;;;10.65;;
33148;SDS011;19506;51.040;3.856;2022-09-03T07:51:20;17.67;;;9.70;;
33148;SDS011;19506;51.040;3.856;2022-09-03T07:53:50;15.65;;;9.95;;
33148;SDS011;19506;51.040;3.856;2022-09-03T07:56:17;16.58;;;9.80;;
33148;SDS011;19506;51.040;3.856;2022-09-03T07:58:43;16.67;;;9.52;;
33148;SDS011;19506;51.040;3.856;2022-09-03T08:01:10;13.43;;;8.57;;
33148;SDS011;19506;51.040;3.856;2022-09-03T08:03:37;13.27;;;8.65;;
33148;SDS011;19506;51.040;3.856;2022-09-03T08:06:06;13.60;;;8.18;;
33148;SDS011;19506;51.040;3.856;2022-09-03T08:08:33;13.70;;;9.00;;
33148;SDS011;19506;51.040;3.856;2022-09-03T08:11:05;17.42;;;9.85;;
33148;SDS011;19506;51.040;3.856;2022-09-03T08:13:41;14.05;;;10.27;;
33148;SDS011;19506;51.040;3.856;2022-09-03T08:16:13;11.15;;;9.45;;
33148;SDS011;19506;51.040;3.856;2022-09-03T08:18:40;13.45;;;9.18;;
33148;SDS011;19506;51.040;3.856;2022-09-03T08:21:07;14.07;;;8.85;;
33148;SDS011;19506;51.040;3.856;2022-09-03T08:23:41;16.83;;;9.13;;
33148;SDS011;19506;51.040;3.856;2022-09-03T08:26:08;14.98;;;8.88;;
33148;SDS011;19506;51.040;3.856;2022-09-03T08:28:35;15.73;;;9.23;;
33148;SDS011;19506;51.040;3.856;2022-09-03T08:31:08;19.05;;;8.30;;
33148;SDS011;19506;51.040;3.856;2022-09-03T08:33:36;14.93;;;9.52;;
33148;SDS011;19506;51.040;3.856;2022-09-03T08:36:08;13.45;;;9.50;;
33148;SDS011;19506;51.040;3.856;2022-09-03T08:38:34;14.73;;;9.27;;
33148;SDS011;19506;51.040;3.856;2022-09-03T08:43:37;13.43;;;8.32;;
33148;SDS011;19506;51.040;3.856;2022-09-03T08:46:08;16.55;;;8.27;;
33148;SDS011;19506;51.040;3.856;2022-09-03T08:48:33;18.42;;;8.02;;
33148;SDS011;19506;51.040;3.856;2022-09-03T08:51:00;8.95;;;8.05;;
33148;SDS011;19506;51.040;3.856;2022-09-03T08:56:11;17.23;;;8.43;;
33148;SDS011;19506;51.040;3.856;2022-09-03T08:58:44;12.82;;;7.85;;
33148;SDS011;19506;51.040;3.856;2022-09-03T09:01:27;13.30;;;8.18;;
33148;SDS011;19506;51.040;3.856;2022-09-03T09:06:45;16.33;;;8.30;;
33148;SDS011;19506;51.040;3.856;2022-09-03T09:09:34;17.88;;;7.70;;
33148;SDS011;19506;51.040;3.856;2022-09-03T09:23:17;18.13;;;8.63;;
33148;SDS011;19506;51.040;3.856;2022-09-03T09:25:51;17.63;;;8.77;;
33148;SDS011;19506;51.040;3.856;2022-09-03T09:28:23;16.70;;;8.50;;
33148;SDS011;19506;51.040;3.856;2022-09-03T09:30:54;17.52;;;8.63;;
33148;SDS011;19506;51.040;3.856;2022-09-03T09:33:21;11.07;;;8.35;;
33148;SDS011;19506;51.040;3.856;2022-09-03T09:35:49;18.63;;;8.93;;
33148;SDS011;19506;51.040;3.856;2022-09-03T09:38:15;18.83;;;8.48;;
33148;SDS011;19506;51.040;3.856;2022-09-03T09:40:53;19.25;;;8.88;;
33148;SDS011;19506;51.040;3.856;2022-09-03T09:43:21;15.15;;;8.80;;
33148;SDS011;19506;51.040;3.856;2022-09-03T09:45:51;14.65;;;7.60;;
33148;SDS011;19506;51.040;3.856;2022-09-03T09:48:30;21.83;;;10.27;;
33148;SDS011;19506;51.040;3.856;2022-09-03T09:51:05;16.33;;;9.35;;
33148;SDS011;19506;51.040;3.856;2022-09-03T09:53:42;25.40;;;9.55;;
33148;SDS011;19506;51.040;3.856;2022-09-03T09:56:11;19.83;;;8.60;;
33148;SDS011;19506;51.040;3.856;2022-09-03T09:58:48;16.38;;;8.75;;
33148;SDS011;19506;51.040;3.856;2022-09-03T10:01:25;20.08;;;9.45;;
33148;SDS011;19506;51.040;3.856;2022-09-03T10:03:55;24.70;;;9.57;;
33148;SDS011;19506;51.040;3.856;2022-09-03T10:06:31;17.95;;;8.85;;
33148;SDS011;19506;51.040;3.856;2022-09-03T10:09:18;17.08;;;8.00;;
33148;SDS011;19506;51.040;3.856;2022-09-03T10:11:48;14.75;;;8.23;;
33148;SDS011;19506;51.040;3.856;2022-09-03T10:14:23;21.67;;;8.60;;
33148;SDS011;19506;51.040;3.856;2022-09-03T10:22:55;24.17;;;8.02;;
33148;SDS011;19506;51.040;3.856;2022-09-03T10:25:26;20.85;;;7.88;;
33148;SDS011;19506;51.040;3.856;2022-09-03T10:27:59;21.90;;;6.47;;
33148;SDS011;19506;51.040;3.856;2022-09-03T10:30:26;20.23;;;7.72;;
33148;SDS011;19506;51.040;3.856;2022-09-03T10:35:33;15.75;;;7.22;;
33148;SDS011;19506;51.040;3.856;2022-09-03T10:40:44;23.55;;;7.53;;
33148;SDS011;19506;51.040;3.856;2022-09-03T10:46:02;21.30;;;7.20;;
33148;SDS011;19506;51.040;3.856;2022-09-03T10:54:18;25.38;;;7.35;;
33148;SDS011;19506;51.040;3.856;2022-09-03T11:00:03;10.65;;;5.93;;
33148;SDS011;19506;51.040;3.856;2022-09-03T11:08:01;9.02;;;6.20;;
33148;SDS011;19506;51.040;3.856;2022-09-03T11:10:42;12.63;;;6.55;;
33148;SDS011;19506;51.040;3.856;2022-09-03T11:13:34;9.85;;;5.50;;
33148;SDS011;19506;51.040;3.856;2022-09-03T11:16:13;8.82;;;5.53;;
33148;SDS011;19506;51.040;3.856;2022-09-03T11:18:43;11.95;;;5.78;;
33148;SDS011;19506;51.040;3.856;2022-09-03T11:21:13;11.27;;;5.47;;
33148;SDS011;19506;51.040;3.856;2022-09-03T11:23:44;7.95;;;4.95;;
33148;SDS011;19506;51.040;3.856;2022-09-03T11:26:17;11.70;;;5.25;;
33148;SDS011;19506;51.040;3.856;2022-09-03T11:33:57;9.70;;;5.30;;
33148;SDS011;19506;51.040;3.856;2022-09-03T11:36:38;7.05;;;5.00;;
33148;SDS011;19506;51.040;3.856;2022-09-03T11:39:18;13.63;;;5.05;;
33148;SDS011;19506;51.040;3.856;2022-09-03T11:41:57;7.47;;;4.65;;
33148;SDS011;19506;51.040;3.856;2022-09-03T11:44:34;8.30;;;5.60;;
33148;SDS011;19506;51.040;3.856;2022-09-03T11:47:11;6.68;;;5.10;;
33148;SDS011;19506;51.040;3.856;2022-09-03T11:49:46;7.35;;;4.85;;
33148;SDS011;19506;51.040;3.856;2022-09-03T11:52:26;14.85;;;4.95;;
33148;SDS011;19506;51.040;3.856;2022-09-03T11:54:53;11.02;;;4.47;;
33148;SDS011;19506;51.040;3.856;2022-09-03T11:57:24;8.70;;;4.75;;
33148;SDS011;19506;51.040;3.856;2022-09-03T12:02:36;9.82;;;4.65;;
33148;SDS011;19506;51.040;3.856;2022-09-03T12:05:23;7.13;;;4.43;;
33148;SDS011;19506;51.040;3.856;2022-09-03T12:13:41;6.55;;;3.50;;
33148;SDS011;19506;51.040;3.856;2022-09-03T12:16:27;9.68;;;4.68;;
33148;SDS011;19506;51.040;3.856;2022-09-03T12:19:02;13.48;;;4.68;;
33148;SDS011;19506;51.040;3.856;2022-09-03T12:21:37;11.45;;;4.38;;
33148;SDS011;19506;51.040;3.856;2022-09-03T12:24:05;8.57;;;4.30;;
33148;SDS011;19506;51.040;3.856;2022-09-03T12:26:37;10.18;;;4.15;;
33148;SDS011;19506;51.040;3.856;2022-09-03T12:29:05;4.25;;;3.17;;
33148;SDS011;19506;51.040;3.856;2022-09-03T12:31:32;6.22;;;3.60;;
33148;SDS011;19506;51.040;3.856;2022-09-03T12:34:11;7.20;;;3.47;;
33148;SDS011;19506;51.040;3.856;2022-09-03T12:36:57;8.73;;;2.97;;
33148;SDS011;19506;51.040;3.856;2022-09-03T12:39:24;10.00;;;3.47;;
33148;SDS011;19506;51.040;3.856;2022-09-03T12:42:01;6.47;;;3.58;;
33148;SDS011;19506;51.040;3.856;2022-09-03T12:44:30;7.30;;;3.35;;
33148;SDS011;19506;51.040;3.856;2022-09-03T12:47:04;4.88;;;3.35;;
33148;SDS011;19506;51.040;3.856;2022-09-03T12:49:34;7.63;;;3.50;;
33148;SDS011;19506;51.040;3.856;2022-09-03T12:52:15;6.05;;;3.10;;
33148;SDS011;19506;51.040;3.856;2022-09-03T12:57:33;7.47;;;4.22;;
33148;SDS011;19506;51.040;3.856;2022-09-03T13:00:06;8.98;;;3.70;;
33148;SDS011;19506;51.040;3.856;2022-09-03T13:02:36;6.00;;;3.70;;
33148;SDS011;19506;51.040;3.856;2022-09-03T13:05:27;5.72;;;3.55;;
33148;SDS011;19506;51.040;3.856;2022-09-03T13:08:07;13.20;;;3.95;;
33148;SDS011;19506;51.040;3.856;2022-09-03T13:10:38;9.02;;;3.65;;
33148;SDS011;19506;51.040;3.856;2022-09-03T13:23:54;7.43;;;3.55;;
33148;SDS011;19506;51.040;3.856;2022-09-03T13:32:21;6.05;;;3.50;;
33148;SDS011;19506;51.040;3.856;2022-09-03T13:34:53;5.97;;;3.13;;
33148;SDS011;19506;51.040;3.856;2022-09-03T13:37:30;10.20;;;3.25;;
33148;SDS011;19506;51.040;3.856;2022-09-03T13:40:09;9.98;;;2.83;;
33148;SDS011;19506;51.040;3.856;2022-09-03T13:43:06;7.85;;;3.35;;
33148;SDS011;19506;51.040;3.856;2022-09-03T13:45:45;7.30;;;3.03;;
33148;SDS011;19506;51.040;3.856;2022-09-03T13:48:30;11.65;;;4.28;;
33148;SDS011;19506;51.040;3.856;2022-09-03T13:54:11;20.25;;;4.38;;
33148;SDS011;19506;51.040;3.856;2022-09-03T13:59:50;10.75;;;3.83;;
33148;SDS011;19506;51.040;3.856;2022-09-03T14:08:07;4.82;;;3.00;;
33148;SDS011;19506;51.040;3.856;2022-09-03T14:13:47;13.48;;;3.85;;
33148;SDS011;19506;51.040;3.856;2022-09-03T14:16:38;11.55;;;4.78;;
33148;SDS011;19506;51.040;3.856;2022-09-03T14:19:15;15.73;;;3.63;;
33148;SDS011;19506;51.040;3.856;2022-09-03T14:24:23;13.27;;;4.37;;
33148;SDS011;19506;51.040;3.856;2022-09-03T14:27:02;11.93;;;3.45;;
33148;SDS011;19506;51.040;3.856;2022-09-03T14:29:30;17.80;;;4.43;;
33148;SDS011;19506;51.040;3.856;2022-09-03T14:35:02;8.68;;;4.53;;
33148;SDS011;19506;51.040;3.856;2022-09-03T14:37:37;18.58;;;4.82;;
33148;SDS011;19506;51.040;3.856;2022-09-03T14:40:29;15.93;;;4.05;;
33148;SDS011;19506;51.040;3.856;2022-09-03T14:51:30;43.05;;;13.90;;
33148;SDS011;19506;51.040;3.856;2022-09-03T15:11:21;60.05;;;25.15;;
33148;SDS011;19506;51.040;3.856;2022-09-03T15:13:51;57.03;;;25.27;;
33148;SDS011;19506;51.040;3.856;2022-09-03T15:16:42;72.72;;;30.45;;
33148;SDS011;19506;51.040;3.856;2022-09-03T15:19:25;82.95;;;28.52;;
33148;SDS011;19506;51.040;3.856;2022-09-03T15:24:58;67.57;;;28.05;;
33148;SDS011;19506;51.040;3.856;2022-09-03T15:38:56;61.92;;;24.23;;
33148;SDS011;19506;51.040;3.856;2022-09-03T15:44:15;45.58;;;19.60;;
33148;SDS011;19506;51.040;3.856;2022-09-03T15:54:21;34.47;;;11.48;;
33148;SDS011;19506;51.040;3.856;2022-09-03T15:57:00;23.00;;;10.05;;
33148;SDS011;19506;51.040;3.856;2022-09-03T15:59:34;35.92;;;8.93;;
33148;SDS011;19506;51.040;3.856;2022-09-03T16:02:41;29.30;;;8.13;;
33148;SDS011;19506;51.040;3.856;2022-09-03T16:05:34;25.63;;;6.88;;
33148;SDS011;19506;51.040;3.856;2022-09-03T16:21:50;56.35;;;15.82;;
33148;SDS011;19506;51.040;3.856;2022-09-03T16:24:47;55.83;;;15.90;;
33148;SDS011;19506;51.040;3.856;2022-09-03T16:27:22;39.40;;;12.70;;
33148;SDS011;19506;51.040;3.856;2022-09-03T16:32:56;32.67;;;10.35;;
33148;SDS011;19506;51.040;3.856;2022-09-03T16:35:26;35.60;;;9.65;;
33148;SDS011;19506;51.040;3.856;2022-09-03T16:38:04;33.67;;;10.32;;
33148;SDS011;19506;51.040;3.856;2022-09-03T16:43:35;56.00;;;11.63;;
33148;SDS011;19506;51.040;3.856;2022-09-03T16:51:48;40.08;;;12.52;;
33148;SDS011;19506;51.040;3.856;2022-09-03T17:00:03;38.97;;;11.93;;
33148;SDS011;19506;51.040;3.856;2022-09-03T17:10:48;28.27;;;9.93;;
33148;SDS011;19506;51.040;3.856;2022-09-03T17:13:30;31.02;;;9.05;;
33148;SDS011;19506;51.040;3.856;2022-09-03T17:24:36;20.67;;;7.72;;
33148;SDS011;19506;51.040;3.856;2022-09-03T17:27:10;19.00;;;7.57;;
33148;SDS011;19506;51.040;3.856;2022-09-03T17:40:15;24.77;;;8.00;;
33148;SDS011;19506;51.040;3.856;2022-09-03T17:43:03;29.45;;;8.13;;
33148;SDS011;19506;51.040;3.856;2022-09-03T17:51:16;27.73;;;8.18;;
33148;SDS011;19506;51.040;3.856;2022-09-03T17:57:04;21.45;;;7.68;;
33148;SDS011;19506;51.040;3.856;2022-09-03T18:04:50;20.70;;;7.18;;
33148;SDS011;19506;51.040;3.856;2022-09-03T18:10:08;12.93;;;5.20;;
33148;SDS011;19506;51.040;3.856;2022-09-03T18:12:53;13.32;;;6.10;;
33148;SDS011;19506;51.040;3.856;2022-09-03T18:19:26;13.13;;;6.13;;
33148;SDS011;19506;51.040;3.856;2022-09-03T18:22:30;18.20;;;6.07;;
33148;SDS011;19506;51.040;3.856;2022-09-03T18:25:23;14.15;;;4.85;;
33148;SDS011;19506;51.040;3.856;2022-09-03T18:28:11;11.05;;;4.95;;
33148;SDS011;19506;51.040;3.856;2022-09-03T18:31:01;10.57;;;5.03;;
33148;SDS011;19506;51.040;3.856;2022-09-03T18:33:45;15.63;;;5.30;;
33148;SDS011;19506;51.040;3.856;2022-09-03T18:36:30;8.32;;;4.40;;
33148;SDS011;19506;51.040;3.856;2022-09-03T18:39:15;11.75;;;4.78;;
33148;SDS011;19506;51.040;3.856;2022-09-03T18:42:30;11.23;;;5.03;;
33148;SDS011;19506;51.040;3.856;2022-09-03T18:45:26;12.60;;;4.45;;
33148;SDS011;19506;51.040;3.856;2022-09-03T18:54:53;7.95;;;3.13;;
33148;SDS011;19506;51.040;3.856;2022-09-03T19:01:07;6.72;;;4.07;;
33148;SDS011;19506;51.040;3.856;2022-09-03T19:06:57;10.52;;;4.18;;
33148;SDS011;19506;51.040;3.856;2022-09-03T19:10:10;14.48;;;4.20;;
33148;SDS011;19506;51.040;3.856;2022-09-03T19:16:29;8.05;;;3.90;;
33148;SDS011;19506;51.040;3.856;2022-09-03T19:22:40;11.25;;;4.13;;
33148;SDS011;19506;51.040;3.856;2022-09-03T19:25:25;8.23;;;4.57;;
33148;SDS011;19506;51.040;3.856;2022-09-03T19:33:57;12.50;;;3.78;;
33148;SDS011;19506;51.040;3.856;2022-09-03T19:37:05;5.90;;;3.53;;
33148;SDS011;19506;51.040;3.856;2022-09-03T19:46:27;14.82;;;4.60;;
33148;SDS011;19506;51.040;3.856;2022-09-03T19:52:10;10.65;;;3.90;;
33148;SDS011;19506;51.040;3.856;2022-09-03T19:55:11;10.70;;;3.75;;
33148;SDS011;19506;51.040;3.856;2022-09-03T19:58:03;11.75;;;3.67;;
33148;SDS011;19506;51.040;3.856;2022-09-03T20:00:47;8.00;;;3.88;;
33148;SDS011;19506;51.040;3.856;2022-09-03T20:03:32;9.68;;;4.03;;
33148;SDS011;19506;51.040;3.856;2022-09-03T20:06:17;5.05;;;3.35;;
33148;SDS011;19506;51.040;3.856;2022-09-03T20:09:11;5.47;;;3.72;;
33148;SDS011;19506;51.040;3.856;2022-09-03T20:11:59;10.23;;;3.58;;
33148;SDS011;19506;51.040;3.856;2022-09-03T20:14:30;8.07;;;4.43;;
33148;SDS011;19506;51.040;3.856;2022-09-03T20:20:11;7.22;;;3.58;;
33148;SDS011;19506;51.040;3.856;2022-09-03T20:22:51;4.82;;;3.72;;
33148;SDS011;19506;51.040;3.856;2022-09-03T20:33:50;11.55;;;3.50;;
33148;SDS011;19506;51.040;3.856;2022-09-03T20:36:39;7.75;;;4.70;;
33148;SDS011;19506;51.040;3.856;2022-09-03T20:39:22;8.27;;;4.82;;
33148;SDS011;19506;51.040;3.856;2022-09-03T20:47:57;4.22;;;3.65;;
33148;SDS011;19506;51.040;3.856;2022-09-03T20:56:11;9.57;;;5.03;;
33148;SDS011;19506;51.040;3.856;2022-09-03T21:01:09;4.97;;;4.28;;